sensor_id;sensor_type;location;lat;lon;timestamp;pressure;altitude;pressure_sealevel;temperature;humidity
51099;BME280;37146;48.210;16.234;2023-06-05T00:01:50;99062.34;;;14.29;100.00
51099;BME280;37146;48.210;16.234;2023-06-05T00:04:16;99070.50;;;14.27;100.00
51099;BME280;37146;48.210;16.234;2023-06-05T00:06:41;99063.97;;;14.31;100.00
51099;BME280;37146;48.210;16.234;2023-06-05T00:09:07;99068.31;;;14.19;100.00
51099;BME280;37146;48.210;16.234;2023-06-05T00:11:33;99062.09;;;14.19;100.00
51099;BME280;37146;48.210;16.234;2023-06-05T00:13:58;99055.34;;;14.26;100.00
51099;BME280;37146;48.210;16.234;2023-06-05T00:16:23;99067.16;;;14.23;100.00
51099;BME280;37146;48.210;16.234;2023-06-05T00:18:48;99057.78;;;14.16;100.00
51099;BME280;37146;48.210;16.234;2023-06-05T00:21:14;99066.28;;;14.23;100.00
51099;BME280;37146;48.210;16.234;2023-06-05T00:23:44;99056.91;;;14.16;100.00
51099;BME280;37146;48.210;16.234;2023-06-05T00:26:10;99058.13;;;14.25;100.00
51099;BME280;37146;48.210;16.234;2023-06-05T00:28:35;99047.53;;;14.36;100.00
51099;BME280;37146;48.210;16.234;2023-06-05T00:31:01;99058.38;;;14.34;100.00
51099;BME280;37146;48.210;16.234;2023-06-05T00:33:26;99042.03;;;14.37;100.00
51099;BME280;37146;48.210;16.234;2023-06-05T00:35:52;99039.34;;;14.37;100.00
51099;BME280;37146;48.210;16.234;2023-06-05T00:38:17;99054.94;;;14.32;100.00
51099;BME280;37146;48.210;16.234;2023-06-05T00:40:43;99050.72;;;14.28;100.00
51099;BME280;37146;48.210;16.234;2023-06-05T00:43:08;99046.09;;;14.30;100.00
51099;BME280;37146;48.210;16.234;2023-06-05T00:45:33;99048.81;;;14.30;100.00
51099;BME280;37146;48.210;16.234;2023-06-05T00:47:58;99054.25;;;14.29;100.00
51099;BME280;37146;48.210;16.234;2023-06-05T00:50:24;99045.47;;;14.27;100.00
51099;BME280;37146;48.210;16.234;2023-06-05T00:52:50;99051.50;;;14.30;100.00
51099;BME280;37146;48.210;16.234;2023-06-05T00:55:16;99052.09;;;14.21;100.00
51099;BME280;37146;48.210;16.234;2023-06-05T00:57:42;99046.50;;;14.24;100.00
51099;BME280;37146;48.210;16.234;2023-06-05T01:00:09;99057.06;;;14.27;100.00
51099;BME280;37146;48.210;16.234;2023-06-05T01:02:37;99051.56;;;14.29;100.00
51099;BME280;37146;48.210;16.234;2023-06-05T01:05:03;99054.19;;;14.30;100.00
51099;BME280;37146;48.210;16.234;2023-06-05T01:07:28;99055.34;;;14.26;100.00
51099;BME280;37146;48.210;16.234;2023-06-05T01:09:54;99056.09;;;14.28;100.00
51099;BME280;37146;48.210;16.234;2023-06-05T01:12:23;99056.41;;;14.23;100.00
51099;BME280;37146;48.210;16.234;2023-06-05T01:14:51;99047.75;;;14.18;100.00
51099;BME280;37146;48.210;16.234;2023-06-05T01:17:23;99050.38;;;14.20;100.00
51099;BME280;37146;48.210;16.234;2023-06-05T01:19:50;99049.41;;;14.21;100.00
51099;BME280;37146;48.210;16.234;2023-06-05T01:22:16;99044.63;;;14.12;100.00
51099;BME280;37146;48.210;16.234;2023-06-05T01:24:41;99047.53;;;14.09;100.00
51099;BME280;37146;48.210;16.234;2023-06-05T01:29:39;99036.34;;;14.15;100.00
51099;BME280;37146;48.210;16.234;2023-06-05T01:32:11;99046.34;;;14.13;100.00
51099;BME280;37146;48.210;16.234;2023-06-05T01:34:40;99040.97;;;14.13;100.00
51099;BME280;37146;48.210;16.234;2023-06-05T01:37:08;99048.19;;;14.12;100.00
51099;BME280;37146;48.210;16.234;2023-06-05T01:39:37;99040.78;;;14.16;100.00
51099;BME280;37146;48.210;16.234;2023-06-05T01:42:03;99037.81;;;14.06;100.00
51099;BME280;37146;48.210;16.234;2023-06-05T01:44:29;99042.16;;;14.09;100.00
51099;BME280;37146;48.210;16.234;2023-06-05T01:46:54;99047.59;;;14.07;100.00
51099;BME280;37146;48.210;16.234;2023-06-05T01:49:20;99039.78;;;14.04;100.00
51099;BME280;37146;48.210;16.234;2023-06-05T01:51:46;99031.78;;;14.02;100.00
51099;BME280;37146;48.210;16.234;2023-06-05T01:54:12;99034.59;;;14.01;100.00
51099;BME280;37146;48.210;16.234;2023-06-05T01:56:37;99029.84;;;14.04;100.00
51099;BME280;37146;48.210;16.234;2023-06-05T01:59:02;99037.94;;;14.04;100.00
51099;BME280;37146;48.210;16.234;2023-06-05T02:01:32;99030.75;;;14.05;100.00
51099;BME280;37146;48.210;16.234;2023-06-05T02:03:57;99031.47;;;14.07;100.00
51099;BME280;37146;48.210;16.234;2023-06-05T02:06:23;99035.03;;;14.07;100.00
51099;BME280;37146;48.210;16.234;2023-06-05T02:08:49;99030.63;;;14.06;100.00
51099;BME280;37146;48.210;16.234;2023-06-05T02:11:15;99034.28;;;14.05;100.00
51099;BME280;37146;48.210;16.234;2023-06-05T02:13:40;99042.22;;;14.07;100.00
51099;BME280;37146;48.210;16.234;2023-06-05T02:16:07;99040.22;;;14.11;100.00
51099;BME280;37146;48.210;16.234;2023-06-05T02:18:33;99034.16;;;14.07;100.00
51099;BME280;37146;48.210;16.234;2023-06-05T02:21:02;99035.13;;;14.06;100.00
51099;BME280;37146;48.210;16.234;2023-06-05T02:23:27;99043.31;;;14.04;100.00
51099;BME280;37146;48.210;16.234;2023-06-05T02:25:52;99041.19;;;14.10;100.00
51099;BME280;37146;48.210;16.234;2023-06-05T02:28:18;99045.31;;;14.15;100.00
51099;BME280;37146;48.210;16.234;2023-06-05T02:30:45;99033.31;;;14.06;100.00
51099;BME280;37146;48.210;16.234;2023-06-05T02:33:10;99040.63;;;14.04;100.00
51099;BME280;37146;48.210;16.234;2023-06-05T02:35:36;99027.94;;;14.06;100.00
51099;BME280;37146;48.210;16.234;2023-06-05T02:38:02;99032.53;;;14.04;100.00
51099;BME280;37146;48.210;16.234;2023-06-05T02:40:30;99031.78;;;14.02;100.00
51099;BME280;37146;48.210;16.234;2023-06-05T02:42:55;99021.25;;;13.99;100.00
51099;BME280;37146;48.210;16.234;2023-06-05T02:45:20;99028.31;;;14.00;100.00
51099;BME280;37146;48.210;16.234;2023-06-05T02:47:45;99030.75;;;14.05;100.00
51099;BME280;37146;48.210;16.234;2023-06-05T02:50:11;99031.00;;;14.00;100.00
51099;BME280;37146;48.210;16.234;2023-06-05T02:52:36;99027.88;;;13.94;100.00
51099;BME280;37146;48.210;16.234;2023-06-05T02:55:03;99032.00;;;13.99;100.00
51099;BME280;37146;48.210;16.234;2023-06-05T02:57:30;99035.66;;;13.98;100.00
51099;BME280;37146;48.210;16.234;2023-06-05T02:59:55;99038.34;;;13.98;100.00
51099;BME280;37146;48.210;16.234;2023-06-05T03:02:21;99031.53;;;13.93;100.00
51099;BME280;37146;48.210;16.234;2023-06-05T03:04:47;99027.44;;;13.87;100.00
51099;BME280;37146;48.210;16.234;2023-06-05T03:07:18;99032.59;;;13.90;100.00
51099;BME280;37146;48.210;16.234;2023-06-05T03:09:43;99034.53;;;13.88;100.00
51099;BME280;37146;48.210;16.234;2023-06-05T03:12:08;99026.25;;;13.91;100.00
51099;BME280;37146;48.210;16.234;2023-06-05T03:14:34;99030.78;;;13.90;100.00
51099;BME280;37146;48.210;16.234;2023-06-05T03:16:59;99032.81;;;13.87;100.00
51099;BME280;37146;48.210;16.234;2023-06-05T03:19:25;99027.97;;;13.92;100.00
51099;BME280;37146;48.210;16.234;2023-06-05T03:21:52;99024.81;;;13.85;100.00
51099;BME280;37146;48.210;16.234;2023-06-05T03:24:18;99023.97;;;13.85;100.00
51099;BME280;37146;48.210;16.234;2023-06-05T03:26:45;99015.78;;;13.86;100.00
51099;BME280;37146;48.210;16.234;2023-06-05T03:29:10;99020.13;;;13.89;100.00
51099;BME280;37146;48.210;16.234;2023-06-05T03:31:35;99018.75;;;13.96;100.00
51099;BME280;37146;48.210;16.234;2023-06-05T03:34:01;99016.91;;;13.97;100.00
51099;BME280;37146;48.210;16.234;2023-06-05T03:36:27;99014.34;;;13.95;100.00
51099;BME280;37146;48.210;16.234;2023-06-05T03:38:53;99016.06;;;13.96;100.00
51099;BME280;37146;48.210;16.234;2023-06-05T03:41:18;99013.19;;;13.99;100.00
51099;BME280;37146;48.210;16.234;2023-06-05T03:43:44;99010.19;;;14.04;100.00
51099;BME280;37146;48.210;16.234;2023-06-05T03:46:09;99010.69;;;13.96;100.00
51099;BME280;37146;48.210;16.234;2023-06-05T03:48:35;99017.97;;;13.94;100.00
51099;BME280;37146;48.210;16.234;2023-06-05T03:51:00;99018.75;;;13.96;100.00
51099;BME280;37146;48.210;16.234;2023-06-05T03:53:26;99014.16;;;13.98;100.00
51099;BME280;37146;48.210;16.234;2023-06-05T03:55:54;99010.88;;;13.93;100.00
51099;BME280;37146;48.210;16.234;2023-06-05T03:58:19;99017.31;;;13.90;100.00
51099;BME280;37146;48.210;16.234;2023-06-05T04:00:46;99018.94;;;13.93;100.00
51099;BME280;37146;48.210;16.234;2023-06-05T04:03:14;99013.03;;;13.88;100.00
51099;BME280;37146;48.210;16.234;2023-06-05T04:05:39;99018.19;;;13.91;100.00
51099;BME280;37146;48.210;16.234;2023-06-05T04:08:05;99018.19;;;13.91;100.00
51099;BME280;37146;48.210;16.234;2023-06-05T04:10:30;99014.34;;;13.95;100.00
51099;BME280;37146;48.210;16.234;2023-06-05T04:12:56;99018.94;;;13.93;100.00
51099;BME280;37146;48.210;16.234;2023-06-05T04:15:24;99017.97;;;13.94;100.00
51099;BME280;37146;48.210;16.234;2023-06-05T04:17:49;99018.28;;;13.89;100.00
51099;BME280;37146;48.210;16.234;2023-06-05T04:20:14;99025.88;;;13.83;100.00
51099;BME280;37146;48.210;16.234;2023-06-05T04:22:40;99023.09;;;13.84;100.00
51099;BME280;37146;48.210;16.234;2023-06-05T04:25:06;99014.06;;;13.85;100.00
51099;BME280;37146;48.210;16.234;2023-06-05T04:27:31;99006.97;;;13.84;100.00
51099;BME280;37146;48.210;16.234;2023-06-05T04:29:56;99007.66;;;13.88;100.00
51099;BME280;37146;48.210;16.234;2023-06-05T04:32:21;99004.34;;;13.97;100.00
51099;BME280;37146;48.210;16.234;2023-06-05T04:34:47;99007.72;;;13.86;100.00
51099;BME280;37146;48.210;16.234;2023-06-05T04:37:12;99017.31;;;13.90;100.00
51099;BME280;37146;48.210;16.234;2023-06-05T04:39:38;99011.94;;;13.90;100.00
51099;BME280;37146;48.210;16.234;2023-06-05T04:42:03;99013.69;;;13.91;100.00
51099;BME280;37146;48.210;16.234;2023-06-05T04:44:28;99010.22;;;13.89;100.00
51099;BME280;37146;48.210;16.234;2023-06-05T04:46:54;99017.38;;;14.03;100.00
51099;BME280;37146;48.210;16.234;2023-06-05T04:49:21;99018.91;;;14.07;100.00
51099;BME280;37146;48.210;16.234;2023-06-05T04:51:47;99017.28;;;14.05;100.00
51099;BME280;37146;48.210;16.234;2023-06-05T04:54:13;99025.78;;;14.12;100.00
51099;BME280;37146;48.210;16.234;2023-06-05T04:56:38;99016.97;;;14.10;100.00
51099;BME280;37146;48.210;16.234;2023-06-05T04:59:04;99024.44;;;14.19;100.00
51099;BME280;37146;48.210;16.234;2023-06-05T05:01:30;99011.97;;;14.31;100.00
51099;BME280;37146;48.210;16.234;2023-06-05T05:03:55;99021.00;;;14.30;100.00
51099;BME280;37146;48.210;16.234;2023-06-05T05:06:20;99015.44;;;14.33;100.00
51099;BME280;37146;48.210;16.234;2023-06-05T05:08:46;99012.09;;;14.29;100.00
51099;BME280;37146;48.210;16.234;2023-06-05T05:11:13;99014.94;;;14.41;100.00
51099;BME280;37146;48.210;16.234;2023-06-05T05:13:38;99017.09;;;14.48;100.00
51099;BME280;37146;48.210;16.234;2023-06-05T05:16:04;99010.97;;;14.46;100.00
51099;BME280;37146;48.210;16.234;2023-06-05T05:18:29;99007.19;;;14.49;100.00
51099;BME280;37146;48.210;16.234;2023-06-05T05:20:55;99011.94;;;14.58;100.00
51099;BME280;37146;48.210;16.234;2023-06-05T05:23:20;99010.28;;;14.83;100.00
51099;BME280;37146;48.210;16.234;2023-06-05T05:25:46;99009.97;;;14.88;100.00
51099;BME280;37146;48.210;16.234;2023-06-05T05:28:11;99006.63;;;14.97;100.00
51099;BME280;37146;48.210;16.234;2023-06-05T05:30:36;99008.88;;;15.16;100.00
51099;BME280;37146;48.210;16.234;2023-06-05T05:33:02;99010.72;;;14.90;100.00
51099;BME280;37146;48.210;16.234;2023-06-05T05:35:27;99013.53;;;14.88;100.00
51099;BME280;37146;48.210;16.234;2023-06-05T05:37:52;99024.50;;;14.85;100.00
51099;BME280;37146;48.210;16.234;2023-06-05T05:40:17;99025.03;;;14.77;100.00
51099;BME280;37146;48.210;16.234;2023-06-05T05:42:43;99019.97;;;14.86;100.00
51099;BME280;37146;48.210;16.234;2023-06-05T05:45:08;99022.34;;;14.90;100.00
51099;BME280;37146;48.210;16.234;2023-06-05T05:47:33;99021.50;;;15.03;100.00
51099;BME280;37146;48.210;16.234;2023-06-05T05:49:59;99018.91;;;15.01;100.00
51099;BME280;37146;48.210;16.234;2023-06-05T05:52:24;99022.88;;;15.08;100.00
51099;BME280;37146;48.210;16.234;2023-06-05T05:54:49;99024.50;;;15.11;100.00
51099;BME280;37146;48.210;16.234;2023-06-05T05:57:16;99019.56;;;15.05;100.00
51099;BME280;37146;48.210;16.234;2023-06-05T05:59:42;99028.19;;;15.10;100.00
51099;BME280;37146;48.210;16.234;2023-06-05T06:02:09;99028.41;;;15.07;100.00
51099;BME280;37146;48.210;16.234;2023-06-05T06:04:35;99032.25;;;15.03;100.00
51099;BME280;37146;48.210;16.234;2023-06-05T06:07:00;99029.56;;;15.03;100.00
51099;BME280;37146;48.210;16.234;2023-06-05T06:09:26;99031.50;;;15.00;100.00
51099;BME280;37146;48.210;16.234;2023-06-05T06:11:51;99032.59;;;15.11;100.00
51099;BME280;37146;48.210;16.234;2023-06-05T06:14:20;99029.25;;;14.94;100.00
51099;BME280;37146;48.210;16.234;2023-06-05T06:16:46;99036.81;;;15.02;100.00
51099;BME280;37146;48.210;16.234;2023-06-05T06:19:11;99032.69;;;15.22;100.00
51099;BME280;37146;48.210;16.234;2023-06-05T06:21:39;99035.28;;;15.37;100.00
51099;BME280;37146;48.210;16.234;2023-06-05T06:24:05;99032.47;;;15.25;100.00
51099;BME280;37146;48.210;16.234;2023-06-05T06:26:30;99027.06;;;15.38;100.00
51099;BME280;37146;48.210;16.234;2023-06-05T06:28:56;99028.94;;;15.25;100.00
51099;BME280;37146;48.210;16.234;2023-06-05T06:31:22;99035.63;;;15.19;100.00
51099;BME280;37146;48.210;16.234;2023-06-05T06:33:48;99037.09;;;15.23;100.00
51099;BME280;37146;48.210;16.234;2023-06-05T06:36:13;99031.50;;;15.26;100.00
51099;BME280;37146;48.210;16.234;2023-06-05T06:38:38;99029.25;;;15.33;100.00
51099;BME280;37146;48.210;16.234;2023-06-05T06:41:04;99035.38;;;15.22;100.00
51099;BME280;37146;48.210;16.234;2023-06-05T06:43:29;99028.81;;;15.26;100.00
51099;BME280;37146;48.210;16.234;2023-06-05T06:45:54;99020.06;;;15.36;100.00
51099;BME280;37146;48.210;16.234;2023-06-05T06:48:19;99023.59;;;15.62;100.00
51099;BME280;37146;48.210;16.234;2023-06-05T06:50:45;99027.16;;;15.63;100.00
51099;BME280;37146;48.210;16.234;2023-06-05T06:53:10;99031.41;;;15.78;100.00
51099;BME280;37146;48.210;16.234;2023-06-05T06:55:36;99034.13;;;15.91;100.00
51099;BME280;37146;48.210;16.234;2023-06-05T06:58:01;99034.78;;;15.82;100.00
51099;BME280;37146;48.210;16.234;2023-06-05T07:00:26;99038.22;;;15.97;100.00
51099;BME280;37146;48.210;16.234;2023-06-05T07:02:51;99036.69;;;15.92;100.00
51099;BME280;37146;48.210;16.234;2023-06-05T07:05:17;99034.75;;;15.95;100.00
51099;BME280;37146;48.210;16.234;2023-06-05T07:07:44;99033.38;;;16.13;100.00
51099;BME280;37146;48.210;16.234;2023-06-05T07:10:10;99029.38;;;15.95;100.00
51099;BME280;37146;48.210;16.234;2023-06-05T07:12:35;99036.84;;;16.15;100.00
51099;BME280;37146;48.210;16.234;2023-06-05T07:15:01;99033.91;;;15.81;100.00
51099;BME280;37146;48.210;16.234;2023-06-05T07:17:26;99031.72;;;15.99;100.00
51099;BME280;37146;48.210;16.234;2023-06-05T07:19:54;99034.28;;;16.01;100.00
51099;BME280;37146;48.210;16.234;2023-06-05T07:22:19;99036.44;;;16.08;100.00
51099;BME280;37146;48.210;16.234;2023-06-05T07:24:45;99036.56;;;16.07;100.00
51099;BME280;37146;48.210;16.234;2023-06-05T07:27:10;99037.59;;;16.17;100.00
51099;BME280;37146;48.210;16.234;2023-06-05T07:29:35;99036.59;;;16.43;100.00
51099;BME280;37146;48.210;16.234;2023-06-05T07:32:01;99042.69;;;16.33;100.00
51099;BME280;37146;48.210;16.234;2023-06-05T07:34:30;99037.91;;;16.37;100.00
51099;BME280;37146;48.210;16.234;2023-06-05T07:36:55;99031.59;;;16.49;100.00
51099;BME280;37146;48.210;16.234;2023-06-05T07:39:21;99038.38;;;16.55;100.00
51099;BME280;37146;48.210;16.234;2023-06-05T07:41:47;99037.25;;;16.58;100.00
51099;BME280;37146;48.210;16.234;2023-06-05T07:44:14;99032.38;;;16.63;100.00
51099;BME280;37146;48.210;16.234;2023-06-05T07:46:40;99036.81;;;16.64;100.00
51099;BME280;37146;48.210;16.234;2023-06-05T07:49:06;99031.56;;;16.85;99.88
51099;BME280;37146;48.210;16.234;2023-06-05T07:51:31;99031.22;;;16.90;99.11
51099;BME280;37146;48.210;16.234;2023-06-05T07:54:01;99023.31;;;17.11;98.53
51099;BME280;37146;48.210;16.234;2023-06-05T07:56:26;99020.63;;;17.34;96.88
51099;BME280;37146;48.210;16.234;2023-06-05T07:58:51;99021.72;;;16.97;97.51
51099;BME280;37146;48.210;16.234;2023-06-05T08:01:17;99029.53;;;17.00;95.99
51099;BME280;37146;48.210;16.234;2023-06-05T08:03:42;99025.38;;;16.96;95.98
51099;BME280;37146;48.210;16.234;2023-06-05T08:06:09;99043.81;;;17.02;95.32
51099;BME280;37146;48.210;16.234;2023-06-05T08:08:34;99031.28;;;17.01;95.79
51099;BME280;37146;48.210;16.234;2023-06-05T08:10:59;99036.94;;;17.09;95.96
51099;BME280;37146;48.210;16.234;2023-06-05T08:13:24;99033.03;;;17.25;95.39
51099;BME280;37146;48.210;16.234;2023-06-05T08:15:51;99049.81;;;16.94;96.52
51099;BME280;37146;48.210;16.234;2023-06-05T08:18:16;99043.19;;;16.98;96.33
51099;BME280;37146;48.210;16.234;2023-06-05T08:20:42;99033.44;;;16.84;96.54
51099;BME280;37146;48.210;16.234;2023-06-05T08:23:07;99044.59;;;16.80;97.31
51099;BME280;37146;48.210;16.234;2023-06-05T08:25:32;99040.50;;;16.98;97.08
51099;BME280;37146;48.210;16.234;2023-06-05T08:27:57;99031.91;;;17.16;96.42
51099;BME280;37146;48.210;16.234;2023-06-05T08:30:22;99050.09;;;17.14;96.40
51099;BME280;37146;48.210;16.234;2023-06-05T08:32:48;99038.66;;;17.10;97.36
51099;BME280;37146;48.210;16.234;2023-06-05T08:35:13;99039.03;;;17.17;98.13
51099;BME280;37146;48.210;16.234;2023-06-05T08:37:38;99045.06;;;17.32;96.53
51099;BME280;37146;48.210;16.234;2023-06-05T08:40:04;99038.81;;;17.54;95.92
51099;BME280;37146;48.210;16.234;2023-06-05T08:42:33;99043.13;;;17.45;95.14
51099;BME280;37146;48.210;16.234;2023-06-05T08:44:58;99032.66;;;17.64;96.46
51099;BME280;37146;48.210;16.234;2023-06-05T08:47:25;99039.56;;;17.68;94.54
51099;BME280;37146;48.210;16.234;2023-06-05T08:49:52;99042.00;;;17.37;95.90
51099;BME280;37146;48.210;16.234;2023-06-05T08:52:19;99040.78;;;17.64;96.39
51099;BME280;37146;48.210;16.234;2023-06-05T08:54:44;99043.34;;;17.65;95.33
51099;BME280;37146;48.210;16.234;2023-06-05T08:57:10;99050.97;;;17.37;96.64
51099;BME280;37146;48.210;16.234;2023-06-05T08:59:35;99042.00;;;17.71;95.16
51099;BME280;37146;48.210;16.234;2023-06-05T09:02:01;99041.66;;;18.31;93.44
51099;BME280;37146;48.210;16.234;2023-06-05T09:04:26;99034.66;;;18.28;92.25
51099;BME280;37146;48.210;16.234;2023-06-05T09:07:01;99034.72;;;18.05;92.17
51099;BME280;37146;48.210;16.234;2023-06-05T09:09:27;99036.63;;;18.26;91.39
51099;BME280;37146;48.210;16.234;2023-06-05T09:12:00;99026.13;;;18.44;89.68
51099;BME280;37146;48.210;16.234;2023-06-05T09:14:26;99032.41;;;18.66;89.51
51099;BME280;37146;48.210;16.234;2023-06-05T09:16:51;99027.75;;;18.68;88.22
51099;BME280;37146;48.210;16.234;2023-06-05T09:19:16;99023.50;;;18.96;85.24
51099;BME280;37146;48.210;16.234;2023-06-05T09:21:47;99017.53;;;19.24;84.85
51099;BME280;37146;48.210;16.234;2023-06-05T09:24:17;99012.41;;;19.92;83.07
51099;BME280;37146;48.210;16.234;2023-06-05T09:27:00;99013.88;;;19.66;83.67
51099;BME280;37146;48.210;16.234;2023-06-05T09:29:34;99016.22;;;19.80;83.10
51099;BME280;37146;48.210;16.234;2023-06-05T09:32:01;99005.41;;;19.59;83.27
51099;BME280;37146;48.210;16.234;2023-06-05T09:34:28;99017.44;;;20.17;79.07
51099;BME280;37146;48.210;16.234;2023-06-05T09:36:54;99008.84;;;20.02;78.83
51099;BME280;37146;48.210;16.234;2023-06-05T09:39:20;99014.50;;;19.79;79.93
51099;BME280;37146;48.210;16.234;2023-06-05T09:41:47;99018.97;;;19.90;80.93
51099;BME280;37146;48.210;16.234;2023-06-05T09:44:13;99009.81;;;19.91;81.07
51099;BME280;37146;48.210;16.234;2023-06-05T09:46:58;99003.81;;;19.15;81.54
51099;BME280;37146;48.210;16.234;2023-06-05T09:49:28;99005.69;;;19.25;81.13
51099;BME280;37146;48.210;16.234;2023-06-05T09:51:55;99008.94;;;19.40;82.01
51099;BME280;37146;48.210;16.234;2023-06-05T09:54:20;99011.28;;;19.23;81.12
51099;BME280;37146;48.210;16.234;2023-06-05T09:56:47;99008.44;;;19.56;81.62
51099;BME280;37146;48.210;16.234;2023-06-05T09:59:16;99005.72;;;19.56;80.08
51099;BME280;37146;48.210;16.234;2023-06-05T10:01:43;99002.19;;;19.75;78.93
51099;BME280;37146;48.210;16.234;2023-06-05T10:04:09;99006.59;;;20.17;77.63
51099;BME280;37146;48.210;16.234;2023-06-05T10:06:34;98998.06;;;19.81;78.57
51099;BME280;37146;48.210;16.234;2023-06-05T10:09:01;99002.28;;;19.95;78.57
51099;BME280;37146;48.210;16.234;2023-06-05T10:11:27;98996.63;;;19.76;77.71
51099;BME280;37146;48.210;16.234;2023-06-05T10:13:54;98999.50;;;19.44;79.14
51099;BME280;37146;48.210;16.234;2023-06-05T10:16:20;98991.25;;;19.14;79.98
51099;BME280;37146;48.210;16.234;2023-06-05T10:18:48;98991.38;;;19.13;79.51
51099;BME280;37146;48.210;16.234;2023-06-05T10:21:14;98989.38;;;19.46;79.54
51099;BME280;37146;48.210;16.234;2023-06-05T10:23:40;98996.06;;;19.42;80.05
51099;BME280;37146;48.210;16.234;2023-06-05T10:26:07;98997.47;;;19.36;79.21
51099;BME280;37146;48.210;16.234;2023-06-05T10:28:37;98986.84;;;19.54;78.89
51099;BME280;37146;48.210;16.234;2023-06-05T10:31:23;98990.13;;;19.48;79.79
51099;BME280;37146;48.210;16.234;2023-06-05T10:36:33;98991.63;;;19.72;77.31
51099;BME280;37146;48.210;16.234;2023-06-05T10:39:05;98991.13;;;19.98;79.25
51099;BME280;37146;48.210;16.234;2023-06-05T10:41:31;98987.56;;;19.56;77.74
51099;BME280;37146;48.210;16.234;2023-06-05T10:43:56;98988.81;;;19.42;79.61
51099;BME280;37146;48.210;16.234;2023-06-05T10:49:09;98996.69;;;18.93;81.20
51099;BME280;37146;48.210;16.234;2023-06-05T10:51:51;98999.25;;;18.74;82.78
51099;BME280;37146;48.210;16.234;2023-06-05T10:59:16;98988.72;;;18.80;83.47
51099;BME280;37146;48.210;16.234;2023-06-05T11:01:42;98992.59;;;18.99;82.42
51099;BME280;37146;48.210;16.234;2023-06-05T11:04:07;98994.44;;;18.98;81.22
51099;BME280;37146;48.210;16.234;2023-06-05T11:06:32;98995.38;;;19.40;78.97
51099;BME280;37146;48.210;16.234;2023-06-05T11:09:13;98990.44;;;19.65;77.74
51099;BME280;37146;48.210;16.234;2023-06-05T11:11:54;98994.75;;;19.77;76.94
51099;BME280;37146;48.210;16.234;2023-06-05T11:14:20;98992.69;;;19.90;77.63
51099;BME280;37146;48.210;16.234;2023-06-05T11:16:45;98986.75;;;19.66;77.68
51099;BME280;37146;48.210;16.234;2023-06-05T11:24:30;98985.63;;;19.27;78.91
51099;BME280;37146;48.210;16.234;2023-06-05T11:26:55;98980.84;;;19.51;78.73
51099;BME280;37146;48.210;16.234;2023-06-05T11:29:20;98987.00;;;19.53;78.95
51099;BME280;37146;48.210;16.234;2023-06-05T11:31:50;98992.97;;;19.87;78.39
51099;BME280;37146;48.210;16.234;2023-06-05T11:34:15;98987.13;;;19.92;78.42
51099;BME280;37146;48.210;16.234;2023-06-05T11:36:41;98994.03;;;20.45;77.27
51099;BME280;37146;48.210;16.234;2023-06-05T11:39:06;98986.88;;;20.44;76.72
51099;BME280;37146;48.210;16.234;2023-06-05T11:41:33;98983.44;;;20.42;77.25
51099;BME280;37146;48.210;16.234;2023-06-05T11:43:58;98985.47;;;20.30;77.32
51099;BME280;37146;48.210;16.234;2023-06-05T11:46:39;98988.28;;;20.09;78.38
51099;BME280;37146;48.210;16.234;2023-06-05T11:49:05;98984.16;;;20.15;80.01
51099;BME280;37146;48.210;16.234;2023-06-05T11:51:33;98988.84;;;19.93;79.11
51099;BME280;37146;48.210;16.234;2023-06-05T11:53:59;98979.06;;;19.71;81.34
51099;BME280;37146;48.210;16.234;2023-06-05T11:56:26;98979.47;;;19.35;83.07
51099;BME280;37146;48.210;16.234;2023-06-05T11:58:52;98970.66;;;19.43;82.28
51099;BME280;37146;48.210;16.234;2023-06-05T12:01:17;98975.88;;;19.66;83.52
51099;BME280;37146;48.210;16.234;2023-06-05T12:03:46;98972.84;;;19.49;83.67
51099;BME280;37146;48.210;16.234;2023-06-05T12:06:12;98960.22;;;19.28;84.61
51099;BME280;37146;48.210;16.234;2023-06-05T12:08:38;98975.25;;;19.11;84.95
51099;BME280;37146;48.210;16.234;2023-06-05T12:11:18;98967.34;;;18.98;85.89
51099;BME280;37146;48.210;16.234;2023-06-05T12:13:45;98967.81;;;19.04;86.53
51099;BME280;37146;48.210;16.234;2023-06-05T12:16:11;98966.22;;;19.01;87.87
51099;BME280;37146;48.210;16.234;2023-06-05T12:18:36;98964.50;;;19.00;92.26
51099;BME280;37146;48.210;16.234;2023-06-05T12:21:02;98961.63;;;18.80;93.90
51099;BME280;37146;48.210;16.234;2023-06-05T12:23:30;98963.81;;;18.87;96.53
51099;BME280;37146;48.210;16.234;2023-06-05T12:26:00;98962.03;;;18.76;93.56
51099;BME280;37146;48.210;16.234;2023-06-05T12:28:26;98958.34;;;18.77;91.80
51099;BME280;37146;48.210;16.234;2023-06-05T12:30:52;98948.47;;;18.76;91.57
51099;BME280;37146;48.210;16.234;2023-06-05T12:33:18;98954.38;;;18.81;92.93
51099;BME280;37146;48.210;16.234;2023-06-05T12:35:44;98950.34;;;18.96;92.56
51099;BME280;37146;48.210;16.234;2023-06-05T12:38:10;98954.97;;;19.06;91.11
51099;BME280;37146;48.210;16.234;2023-06-05T12:40:36;98950.53;;;19.05;89.99
51099;BME280;37146;48.210;16.234;2023-06-05T12:43:01;98952.28;;;19.15;89.50
51099;BME280;37146;48.210;16.234;2023-06-05T12:45:26;98945.63;;;19.29;89.62
51099;BME280;37146;48.210;16.234;2023-06-05T12:47:51;98952.69;;;19.42;89.39
51099;BME280;37146;48.210;16.234;2023-06-05T12:50:16;98945.19;;;19.24;87.09
51099;BME280;37146;48.210;16.234;2023-06-05T12:52:44;98945.94;;;19.26;87.51
51099;BME280;37146;48.210;16.234;2023-06-05T12:55:10;98944.53;;;19.42;88.36
51099;BME280;37146;48.210;16.234;2023-06-05T12:57:35;98947.56;;;19.39;87.17